createdAt,value
2019-04-16T00:00:00.464Z,52.10
2019-04-16T00:01:00.511Z,51.92
2019-04-16T00:02:00.266Z,52.12
2019-04-16T00:03:00.247Z,52.84
2019-04-16T00:04:00.253Z,52.33
2019-04-16T00:05:00.222Z,52.74
2019-04-16T00:06:00.213Z,51.72
2019-04-16T00:07:00.201Z,52.64
2019-04-16T00:08:00.203Z,53.79
2019-04-16T00:09:00.201Z,52.84
2019-04-16T00:10:00.170Z,52.23
2019-04-16T00:11:00.160Z,53.87
2019-04-16T00:12:00.147Z,53.08
2019-04-16T00:13:00.138Z,52.66
2019-04-16T00:14:02.974Z,52.74
2019-04-16T00:15:00.128Z,52.95
2019-04-16T00:16:00.119Z,52.33
2019-04-16T00:17:00.096Z,52.12
2019-04-16T00:18:00.152Z,51.84
2019-04-16T00:19:04.154Z,52.44
2019-04-16T00:20:05.833Z,52.84
2019-04-16T00:21:01.064Z,51.84
2019-04-16T00:22:00.041Z,52.25
2019-04-16T00:23:00.025Z,53.49
2019-04-16T00:24:00.014Z,52.46
2019-04-16T00:25:00.006Z,52.36
2019-04-16T00:26:00.026Z,53.38
2019-04-16T00:27:00.102Z,52.66
2019-04-16T00:28:00.876Z,52.56
2019-04-16T00:29:02.346Z,52.76
2019-04-16T00:30:03.923Z,53.38
2019-04-16T00:31:01.041Z,53.41
2019-04-16T00:31:59.983Z,53.59
2019-04-16T00:32:59.917Z,52.59
2019-04-16T00:33:59.905Z,54.02
2019-04-16T00:34:59.898Z,54.74
2019-04-16T00:35:59.883Z,54.97
2019-04-16T00:36:59.878Z,54.87
2019-04-16T00:37:59.887Z,54.05
2019-04-16T00:38:59.850Z,54.25
2019-04-16T00:39:59.838Z,54.36
2019-04-16T00:41:01.328Z,54.56
2019-04-16T00:41:59.819Z,54.66
2019-04-16T00:42:59.815Z,53.64
2019-04-16T00:43:59.839Z,54.66
2019-04-16T00:44:59.787Z,55.08
2019-04-16T00:45:59.774Z,55.28
2019-04-16T00:46:59.763Z,55.49
2019-04-16T00:47:59.769Z,54.77
2019-04-16T00:48:59.739Z,55.28
2019-04-16T00:50:00.101Z,55.08
2019-04-16T00:50:59.889Z,55.38
2019-04-16T00:51:59.895Z,54.46
2019-04-16T00:52:59.892Z,54.66
2019-04-16T00:53:59.688Z,54.66
2019-04-16T00:54:59.689Z,55.69
2019-04-16T00:55:59.672Z,54.46
2019-04-16T00:56:59.653Z,54.69
2019-04-16T00:57:59.641Z,54.79
2019-04-16T00:58:59.631Z,54.69
2019-04-16T00:59:59.634Z,54.46
2019-04-16T01:00:59.657Z,54.49
2019-04-16T01:01:59.624Z,54.59
2019-04-16T01:02:59.587Z,54.79
2019-04-16T01:03:59.580Z,54.49
2019-04-16T01:04:59.567Z,55.93
2019-04-16T01:05:59.564Z,55.82
2019-04-16T01:06:59.543Z,56.44
2019-04-16T01:07:59.555Z,55.41
2019-04-16T01:08:59.522Z,54.59
2019-04-16T01:09:59.509Z,54.90
2019-04-16T01:10:59.502Z,54.69
2019-04-16T01:11:59.510Z,54.49
2019-04-16T01:12:59.500Z,54.49
2019-04-16T01:13:59.467Z,54.79
2019-04-16T01:15:00.946Z,54.38
2019-04-16T01:16:02.467Z,54.07
2019-04-16T01:17:04.059Z,54.79
2019-04-16T01:18:00.442Z,54.69
2019-04-16T01:18:59.415Z,54.69
2019-04-16T01:19:59.418Z,53.05
2019-04-16T01:20:59.389Z,54.69
2019-04-16T01:21:59.377Z,54.90
2019-04-16T01:22:59.369Z,55.10
2019-04-16T01:23:59.369Z,54.90
2019-04-16T01:24:59.344Z,53.97
2019-04-16T01:25:59.383Z,53.97
2019-04-16T01:26:59.503Z,54.28
2019-04-16T01:28:00.791Z,53.45
2019-04-16T01:29:02.946Z,53.45
2019-04-16T01:29:59.574Z,54.28
2019-04-16T01:30:59.287Z,53.77
2019-04-16T01:31:59.283Z,54.90
2019-04-16T01:32:59.270Z,54.49
2019-04-16T01:33:59.264Z,54.69
2019-04-16T01:34:59.238Z,54.28
2019-04-16T01:35:59.225Z,54.69
2019-04-16T01:36:59.215Z,53.45
2019-04-16T01:37:59.209Z,54.69
2019-04-16T01:39:14.772Z,55.00
2019-04-16T01:40:00.193Z,55.00
2019-04-16T01:40:59.169Z,54.49
2019-04-16T01:41:59.166Z,55.43
2019-04-16T01:42:59.151Z,55.74
2019-04-16T01:43:59.176Z,56.26
2019-04-16T01:45:00.364Z,55.13
2019-04-16T01:46:01.438Z,56.46
2019-04-16T01:47:03.356Z,55.36
2019-04-16T01:48:00.232Z,56.49
2019-04-16T01:48:59.083Z,55.98
2019-04-16T01:49:59.313Z,54.85
2019-04-16T01:50:59.251Z,55.13
2019-04-16T01:51:59.273Z,54.85
2019-04-16T01:52:59.040Z,55.46
2019-04-16T01:53:59.029Z,55.95
2019-04-16T01:54:59.015Z,55.87
2019-04-16T01:55:59.012Z,57.01
2019-04-16T01:56:59.909Z,55.66
2019-04-16T01:57:59.660Z,54.53
2019-04-16T01:58:58.972Z,55.26
2019-04-16T01:59:58.961Z,55.02
2019-04-16T02:00:58.950Z,54.85
2019-04-16T02:01:58.964Z,54.41
2019-04-16T02:02:58.940Z,54.72
2019-04-16T02:03:59.036Z,55.02
2019-04-16T02:04:59.009Z,54.72
2019-04-16T02:05:59.183Z,55.43
2019-04-16T02:06:59.091Z,54.82
2019-04-16T02:07:59.918Z,54.92
2019-04-16T02:09:01.774Z,55.77
2019-04-16T02:09:58.853Z,55.54
2019-04-16T02:10:58.841Z,54.74
2019-04-16T02:11:58.832Z,54.64
2019-04-16T02:12:58.836Z,54.72
2019-04-16T02:13:58.827Z,54.53
2019-04-16T02:14:58.797Z,54.53
2019-04-16T02:15:58.786Z,54.74
2019-04-16T02:16:58.777Z,54.61
2019-04-16T02:17:59.566Z,54.82
2019-04-16T02:19:01.267Z,55.05
2019-04-16T02:20:02.114Z,54.85
2019-04-16T02:20:59.938Z,55.85
2019-04-16T02:21:58.720Z,56.49
2019-04-16T02:22:58.720Z,55.98
2019-04-16T02:23:58.698Z,54.85
2019-04-16T02:24:58.698Z,55.98
2019-04-16T02:25:58.689Z,54.94
2019-04-16T02:26:58.666Z,54.53
2019-04-16T02:27:58.654Z,54.85
2019-04-16T02:28:59.074Z,54.74
2019-04-16T02:30:02.926Z,55.26
2019-04-16T02:30:59.648Z,54.74
2019-04-16T02:31:58.623Z,55.05
2019-04-16T02:32:58.613Z,55.26
2019-04-16T02:33:58.590Z,54.64
2019-04-16T02:34:58.581Z,54.74
2019-04-16T02:35:58.585Z,55.98
2019-04-16T02:37:02.460Z,55.46
2019-04-16T02:37:58.574Z,55.98
2019-04-16T02:38:58.541Z,54.64
2019-04-16T02:39:58.522Z,54.53
2019-04-16T02:40:58.513Z,54.85
2019-04-16T02:41:58.734Z,54.43
2019-04-16T02:43:04.179Z,54.13
2019-04-16T02:43:59.490Z,54.74
2019-04-16T02:44:58.485Z,54.64
2019-04-16T02:45:58.819Z,55.46
2019-04-16T02:47:05.423Z,56.00
2019-04-16T02:47:59.443Z,54.53
2019-04-16T02:48:58.429Z,56.82
2019-04-16T02:49:58.425Z,56.21
2019-04-16T02:51:05.485Z,56.52
2019-04-16T02:51:59.401Z,56.65
2019-04-16T02:52:58.398Z,57.16
2019-04-16T02:53:59.855Z,57.06
2019-04-16T02:54:58.363Z,56.85
2019-04-16T02:55:58.361Z,56.67
2019-04-16T02:56:58.336Z,56.57
2019-04-16T02:58:00.067Z,56.57
2019-04-16T02:58:58.328Z,56.67
2019-04-16T02:59:58.310Z,57.81
2019-04-16T03:00:58.295Z,56.80
2019-04-16T03:01:58.288Z,57.18
2019-04-16T03:02:58.269Z,57.42
2019-04-16T03:03:58.285Z,57.52
2019-04-16T03:04:58.955Z,57.70
2019-04-16T03:06:00.686Z,58.65
2019-04-16T03:07:02.708Z,58.45
2019-04-16T03:08:01.494Z,58.45
2019-04-16T03:08:58.202Z,58.14
2019-04-16T03:10:01.452Z,59.07
2019-04-16T03:10:58.180Z,58.99
2019-04-16T03:11:58.171Z,58.48
2019-04-16T03:12:58.158Z,59.20
2019-04-16T03:13:59.314Z,58.45
2019-04-16T03:15:00.840Z,58.27
2019-04-16T03:15:58.137Z,59.51
2019-04-16T03:16:58.117Z,59.61
2019-04-16T03:17:58.107Z,59.20
2019-04-16T03:18:58.095Z,58.89
2019-04-16T03:19:58.101Z,59.20
2019-04-16T03:20:58.086Z,59.95
2019-04-16T03:21:59.134Z,60.36
2019-04-16T03:22:58.050Z,59.95
2019-04-16T03:23:58.038Z,60.36
2019-04-16T03:24:58.029Z,60.88
2019-04-16T03:25:58.025Z,60.98
2019-04-16T03:26:58.029Z,61.50
2019-04-16T03:27:57.993Z,61.94
2019-04-16T03:28:59.122Z,61.42
2019-04-16T03:30:02.850Z,61.83
2019-04-16T03:30:58.961Z,62.15
2019-04-16T03:31:59.554Z,62.48
2019-04-16T03:32:57.941Z,62.79
2019-04-16T03:33:57.945Z,62.90
2019-04-16T03:34:57.918Z,62.48
2019-04-16T03:35:58.600Z,63.00
2019-04-16T03:36:58.592Z,62.48
2019-04-16T03:37:57.918Z,63.00
2019-04-16T03:38:57.874Z,63.31
2019-04-16T03:39:57.866Z,63.23
2019-04-16T03:40:57.852Z,63.03
2019-04-16T03:41:57.839Z,63.65
2019-04-16T03:42:59.316Z,63.75
2019-04-16T03:43:57.849Z,63.54
2019-04-16T03:44:57.807Z,63.34
2019-04-16T03:45:57.794Z,63.65
2019-04-16T03:46:57.785Z,63.44
2019-04-16T03:47:57.772Z,63.54
2019-04-16T03:48:57.778Z,64.37
2019-04-16T03:49:59.449Z,63.65
2019-04-16T03:51:00.567Z,64.37
2019-04-16T03:51:58.726Z,64.06
2019-04-16T03:52:57.737Z,64.20
2019-04-16T03:53:57.705Z,64.48
2019-04-16T03:54:57.699Z,64.51
2019-04-16T03:55:58.322Z,65.44
2019-04-16T03:57:01.873Z,64.61
2019-04-16T03:57:58.675Z,64.51
2019-04-16T03:58:57.670Z,64.51
2019-04-16T04:00:00.658Z,65.33
2019-04-16T04:00:57.629Z,65.33
2019-04-16T04:01:57.636Z,65.44
2019-04-16T04:02:57.606Z,65.57
2019-04-16T04:03:58.420Z,65.23
2019-04-16T04:05:01.067Z,65.67
2019-04-16T04:05:58.573Z,66.29
2019-04-16T04:06:57.563Z,66.19
2019-04-16T04:07:57.583Z,65.99
2019-04-16T04:08:57.539Z,66.29
2019-04-16T04:09:58.842Z,66.19
2019-04-16T04:10:57.518Z,65.99
2019-04-16T04:11:57.524Z,66.19
2019-04-16T04:12:57.497Z,65.26
2019-04-16T04:13:57.492Z,64.95
2019-04-16T04:14:57.474Z,65.57
2019-04-16T04:15:58.653Z,65.26
2019-04-16T04:16:57.485Z,65.05
2019-04-16T04:17:57.464Z,65.47
2019-04-16T04:18:57.429Z,65.26
2019-04-16T04:19:57.425Z,65.36
2019-04-16T04:20:57.409Z,65.88
2019-04-16T04:21:57.401Z,65.57
2019-04-16T04:22:57.913Z,66.39
2019-04-16T04:23:59.756Z,65.88
2019-04-16T04:24:57.366Z,65.57
2019-04-16T04:25:57.360Z,65.67
2019-04-16T04:26:57.340Z,65.88
2019-04-16T04:27:57.336Z,65.36
2019-04-16T04:28:57.335Z,65.57
2019-04-16T04:29:57.444Z,65.99
2019-04-16T04:30:57.691Z,66.29
2019-04-16T04:31:57.289Z,66.39
2019-04-16T04:32:57.304Z,66.39
2019-04-16T04:33:57.262Z,66.02
2019-04-16T04:34:57.283Z,66.32
2019-04-16T04:35:57.245Z,66.12
2019-04-16T04:36:59.737Z,66.12
2019-04-16T04:37:57.224Z,66.22
2019-04-16T04:38:57.242Z,66.29
2019-04-16T04:39:57.199Z,65.88
2019-04-16T04:40:59.671Z,65.99
2019-04-16T04:41:57.319Z,66.09
2019-04-16T04:42:57.755Z,66.09
2019-04-16T04:43:57.156Z,66.09
2019-04-16T04:44:57.148Z,65.88
2019-04-16T04:45:57.134Z,66.50
2019-04-16T04:46:57.139Z,66.74
2019-04-16T04:47:57.111Z,66.32
2019-04-16T04:49:00.052Z,66.39
2019-04-16T04:49:59.496Z,66.74
2019-04-16T04:50:58.087Z,66.84
2019-04-16T04:51:57.065Z,66.53
2019-04-16T04:52:57.072Z,66.84
2019-04-16T04:53:57.046Z,66.74
2019-04-16T04:54:57.031Z,66.02
2019-04-16T04:55:57.272Z,66.94
2019-04-16T04:56:59.335Z,66.74
2019-04-16T04:57:57.000Z,66.94
2019-04-16T04:58:57.008Z,67.05
2019-04-16T04:59:56.977Z,66.94
2019-04-16T05:00:56.965Z,67.39
2019-04-16T05:01:56.953Z,68.40
2019-04-16T05:02:56.945Z,68.40
2019-04-16T05:03:56.932Z,68.43
2019-04-16T05:04:56.933Z,68.43
2019-04-16T05:05:56.909Z,67.88
2019-04-16T05:06:57.236Z,68.40
2019-04-16T05:07:59.664Z,67.77
2019-04-16T05:08:57.666Z,68.22
2019-04-16T05:09:56.885Z,68.84
2019-04-16T05:10:59.793Z,68.63
2019-04-16T05:11:57.842Z,68.60
2019-04-16T05:12:56.834Z,68.19
2019-04-16T05:13:57.125Z,67.98
2019-04-16T05:14:58.407Z,68.60
2019-04-16T05:15:58.322Z,67.88
2019-04-16T05:16:56.803Z,68.29
2019-04-16T05:17:56.778Z,68.49
2019-04-16T05:18:56.765Z,66.81
2019-04-16T05:19:56.754Z,67.57
2019-04-16T05:20:56.757Z,67.85
2019-04-16T05:21:56.743Z,67.98
2019-04-16T05:22:58.060Z,68.05
2019-04-16T05:23:57.558Z,67.54
2019-04-16T05:25:01.050Z,67.33
2019-04-16T05:25:56.688Z,68.26
2019-04-16T05:26:56.692Z,67.74
2019-04-16T05:27:56.666Z,67.64
2019-04-16T05:28:56.669Z,66.81
2019-04-16T05:29:56.643Z,65.75
2019-04-16T05:30:56.637Z,66.57
2019-04-16T05:31:57.349Z,66.36
2019-04-16T05:32:56.622Z,65.33
2019-04-16T05:34:01.912Z,64.30
2019-04-16T05:34:57.600Z,64.37
2019-04-16T05:35:59.338Z,64.37
2019-04-16T05:36:56.573Z,65.30
2019-04-16T05:37:56.555Z,64.37
2019-04-16T05:38:56.569Z,64.24
2019-04-16T05:39:58.818Z,64.45
2019-04-16T05:40:56.525Z,64.24
2019-04-16T05:41:56.513Z,64.24
2019-04-16T05:42:58.974Z,63.72
2019-04-16T05:43:58.457Z,63.31
2019-04-16T05:44:56.486Z,63.21
2019-04-16T05:45:56.489Z,62.69
2019-04-16T05:46:56.457Z,62.76
2019-04-16T05:47:56.444Z,64.21
2019-04-16T05:48:56.442Z,63.59
2019-04-16T05:49:57.969Z,63.39
2019-04-16T05:50:59.756Z,63.07
2019-04-16T05:51:56.415Z,61.70
2019-04-16T05:52:56.389Z,61.70
2019-04-16T05:53:56.378Z,61.40
2019-04-16T05:54:56.367Z,61.57
2019-04-16T05:55:57.474Z,61.68
2019-04-16T05:56:56.378Z,61.68
2019-04-16T05:57:58.200Z,61.85
2019-04-16T05:58:56.324Z,61.65
2019-04-16T05:59:56.311Z,59.86
2019-04-16T06:00:56.301Z,60.17
2019-04-16T06:01:57.535Z,59.04
2019-04-16T06:02:56.300Z,60.05
2019-04-16T06:03:56.268Z,59.33
2019-04-16T06:04:56.552Z,59.04
2019-04-16T06:05:58.911Z,58.09
2019-04-16T06:06:56.236Z,58.91
2019-04-16T06:07:56.223Z,58.19
2019-04-16T06:08:56.240Z,58.01
2019-04-16T06:09:56.201Z,59.14
2019-04-16T06:10:57.646Z,59.14
2019-04-16T06:11:56.178Z,58.50
2019-04-16T06:12:56.167Z,58.40
2019-04-16T06:13:56.159Z,57.98
2019-04-16T06:14:56.178Z,58.24
2019-04-16T06:15:56.135Z,58.98
2019-04-16T06:16:56.798Z,58.24
2019-04-16T06:17:56.113Z,58.68
2019-04-16T06:18:56.115Z,57.73
2019-04-16T06:19:56.102Z,58.65
2019-04-16T06:20:56.087Z,58.34
2019-04-16T06:21:56.661Z,57.21
2019-04-16T06:23:00.613Z,57.39
2019-04-16T06:23:57.046Z,56.74
2019-04-16T06:24:56.037Z,55.18
2019-04-16T06:25:56.036Z,54.95
2019-04-16T06:26:56.028Z,54.66
2019-04-16T06:27:56.002Z,54.53
2019-04-16T06:28:59.725Z,54.82
2019-04-16T06:29:57.572Z,53.59
2019-04-16T06:30:56.986Z,53.36
2019-04-16T06:31:55.961Z,52.41
2019-04-16T06:32:55.983Z,52.00
2019-04-16T06:33:55.939Z,51.82
2019-04-16T06:34:55.927Z,52.82
2019-04-16T06:35:55.920Z,53.64
2019-04-16T06:36:55.915Z,52.74
2019-04-16T06:37:55.895Z,53.66
2019-04-16T06:38:57.659Z,53.56
2019-04-16T06:40:00.627Z,52.95
2019-04-16T06:40:56.858Z,53.46
2019-04-16T06:41:55.863Z,53.64
2019-04-16T06:42:55.842Z,54.02
2019-04-16T06:43:59.257Z,52.77
2019-04-16T06:44:55.828Z,53.59
2019-04-16T06:45:55.804Z,52.36
2019-04-16T06:46:55.794Z,53.49
2019-04-16T06:47:55.796Z,52.26
2019-04-16T06:48:55.772Z,51.13
2019-04-16T06:49:55.760Z,51.75
2019-04-16T06:50:55.779Z,52.26
2019-04-16T06:51:55.740Z,52.26
2019-04-16T06:52:55.738Z,51.51
2019-04-16T06:53:56.808Z,52.13
2019-04-16T06:54:55.704Z,51.85
2019-04-16T06:55:55.695Z,51.44
2019-04-16T06:56:55.734Z,51.98
2019-04-16T06:57:55.675Z,52.28
2019-04-16T06:58:57.431Z,52.87
2019-04-16T06:59:55.649Z,52.36
2019-04-16T07:00:55.636Z,52.77
2019-04-16T07:01:55.626Z,52.64
2019-04-16T07:03:02.114Z,52.13
2019-04-16T07:03:59.577Z,52.64
2019-04-16T07:04:58.322Z,52.13
2019-04-16T07:05:56.582Z,52.03
2019-04-16T07:06:55.571Z,51.39
2019-04-16T07:07:55.558Z,51.70
2019-04-16T07:08:55.610Z,50.47
2019-04-16T07:09:57.020Z,50.78
2019-04-16T07:10:55.527Z,51.01
2019-04-16T07:11:55.514Z,51.42
2019-04-16T07:12:55.629Z,50.93
2019-04-16T07:13:55.493Z,50.62
2019-04-16T07:14:55.510Z,51.34
2019-04-16T07:15:56.974Z,51.54
2019-04-16T07:16:59.784Z,52.26
2019-04-16T07:19:11.291Z,51.85
2019-04-16T07:20:13.066Z,51.93
2019-04-16T07:21:09.232Z,52.03
2019-04-16T07:22:09.200Z,50.70
2019-04-16T07:23:09.202Z,51.31
2019-04-16T07:24:09.301Z,51.85
2019-04-16T07:25:09.311Z,53.18
2019-04-16T07:26:13.630Z,52.15
2019-04-16T07:27:10.279Z,52.15
2019-04-16T07:28:09.147Z,51.85
2019-04-16T07:29:09.269Z,52.13
2019-04-16T07:30:09.466Z,52.44
2019-04-16T07:31:13.265Z,51.42
2019-04-16T07:32:10.138Z,52.13
2019-04-16T07:33:09.112Z,51.42
2019-04-16T07:34:09.085Z,51.50
2019-04-16T07:35:09.103Z,51.29
2019-04-16T07:36:09.042Z,51.29
2019-04-16T07:37:09.051Z,52.31
2019-04-16T07:38:11.492Z,51.50
2019-04-16T07:39:09.030Z,51.80
2019-04-16T07:40:10.425Z,50.57
2019-04-16T07:41:12.153Z,51.18
2019-04-16T07:42:11.350Z,51.18
2019-04-16T07:43:09.995Z,50.26
2019-04-16T07:44:10.986Z,49.75
2019-04-16T07:45:12.522Z,49.65
2019-04-16T07:46:09.076Z,51.01
2019-04-16T07:47:08.951Z,50.70
2019-04-16T07:48:08.918Z,52.03
2019-04-16T07:49:08.913Z,52.00
2019-04-16T07:50:08.885Z,51.26
2019-04-16T07:51:08.908Z,51.06
2019-04-16T07:52:11.914Z,50.75
2019-04-16T07:53:13.503Z,50.63
2019-04-16T07:54:09.844Z,50.22
2019-04-16T07:55:08.833Z,50.42
2019-04-16T07:56:08.855Z,50.91
2019-04-16T07:57:09.110Z,49.17
2019-04-16T07:58:08.820Z,48.56
2019-04-16T07:59:08.845Z,48.76
2019-04-16T08:00:09.808Z,48.84
2019-04-16T08:01:12.226Z,49.05
2019-04-16T08:02:09.765Z,48.64
2019-04-16T08:03:08.799Z,49.15
2019-04-16T08:04:08.728Z,48.31
2019-04-16T08:05:09.768Z,47.11
2019-04-16T08:06:13.047Z,47.61
2019-04-16T08:07:08.750Z,48.54
2019-04-16T08:08:08.829Z,48.31
2019-04-16T08:09:08.729Z,48.31
2019-04-16T08:10:08.662Z,48.08
2019-04-16T08:11:08.698Z,47.67
2019-04-16T08:12:22.043Z,47.24
2019-04-16T08:13:09.627Z,47.47
2019-04-16T08:14:09.979Z,47.06
2019-04-16T08:15:14.817Z,47.75
2019-04-16T08:16:09.596Z,47.45
2019-04-16T08:17:08.592Z,48.14
2019-04-16T08:18:08.572Z,47.22
2019-04-16T08:19:08.613Z,47.30
2019-04-16T08:20:08.552Z,45.79
2019-04-16T08:21:12.114Z,46.38
2019-04-16T08:22:08.743Z,47.40
2019-04-16T08:23:08.518Z,45.77
2019-04-16T08:24:08.502Z,46.36
2019-04-16T08:25:08.544Z,47.05
2019-04-16T08:26:12.976Z,45.81
2019-04-16T08:27:10.773Z,46.42
2019-04-16T08:28:08.457Z,46.30
2019-04-16T08:29:08.462Z,45.18
2019-04-16T08:30:08.436Z,44.28
2019-04-16T08:31:12.199Z,44.49
2019-04-16T08:32:08.413Z,45.10
2019-04-16T08:33:10.649Z,44.28
2019-04-16T08:34:08.388Z,44.46
2019-04-16T08:35:08.391Z,44.69
2019-04-16T08:36:08.379Z,43.55
2019-04-16T08:37:08.803Z,44.89
2019-04-16T08:38:08.346Z,44.28
2019-04-16T08:39:08.349Z,44.49
2019-04-16T08:40:08.858Z,44.45
2019-04-16T08:41:08.324Z,46.37
2019-04-16T08:42:08.297Z,44.42
2019-04-16T08:43:08.321Z,45.62
2019-04-16T08:44:10.342Z,45.20
2019-04-16T08:45:08.972Z,42.96
2019-04-16T08:46:11.027Z,42.86
2019-04-16T08:47:11.576Z,43.98
2019-04-16T08:48:18.372Z,42.94
2019-04-16T08:49:08.218Z,41.72
2019-04-16T08:50:11.394Z,41.62
2019-04-16T08:51:08.284Z,41.52
2019-04-16T08:52:10.212Z,42.74
2019-04-16T08:53:13.259Z,41.82
2019-04-16T08:54:09.324Z,43.32
2019-04-16T08:55:08.152Z,42.92
2019-04-16T08:56:08.143Z,43.63
2019-04-16T08:57:08.425Z,42.61
2019-04-16T08:58:08.126Z,42.51
2019-04-16T08:59:10.058Z,44.24
2019-04-16T09:00:08.129Z,43.10
2019-04-16T09:01:08.096Z,43.41
2019-04-16T09:02:08.078Z,44.50
2019-04-16T09:03:08.084Z,41.86
2019-04-16T09:04:08.054Z,40.65
2019-04-16T09:05:11.333Z,41.38
2019-04-16T09:06:12.811Z,42.11
2019-04-16T09:07:12.062Z,43.61
2019-04-16T09:08:13.412Z,42.90
2019-04-16T09:09:13.534Z,43.89
2019-04-16T09:10:17.587Z,43.59
2019-04-16T09:11:21.811Z,41.36
2019-04-16T09:12:09.756Z,41.46
2019-04-16T09:13:07.981Z,41.66
2019-04-16T09:14:07.945Z,41.56
2019-04-16T09:15:07.945Z,41.74
2019-04-16T09:16:10.600Z,40.83
2019-04-16T09:17:09.737Z,41.56
2019-04-16T09:18:07.896Z,41.34
2019-04-16T09:19:07.885Z,41.85
2019-04-16T09:20:07.874Z,41.02
2019-04-16T09:21:10.290Z,40.83
2019-04-16T09:22:07.851Z,41.42
2019-04-16T09:23:07.855Z,41.64
2019-04-16T09:24:09.437Z,40.53
2019-04-16T09:25:12.504Z,41.74
2019-04-16T09:26:14.351Z,42.03
2019-04-16T09:27:12.166Z,41.52
2019-04-16T09:28:17.671Z,41.40
2019-04-16T09:29:10.353Z,40.89
2019-04-16T09:30:10.384Z,41.00
2019-04-16T09:31:08.765Z,41.08
2019-04-16T09:32:07.753Z,41.08
2019-04-16T09:33:07.742Z,40.55
2019-04-16T09:34:07.741Z,40.45
2019-04-16T09:35:10.427Z,39.44
2019-04-16T09:36:07.700Z,41.66
2019-04-16T09:37:07.712Z,40.77
2019-04-16T09:38:09.356Z,41.16
2019-04-16T09:39:07.793Z,40.55
2019-04-16T09:40:16.498Z,40.35
2019-04-16T09:41:08.668Z,40.47
2019-04-16T09:42:07.637Z,40.37
2019-04-16T09:43:16.708Z,39.58
2019-04-16T09:44:08.618Z,41.00
2019-04-16T09:45:07.593Z,40.59
2019-04-16T09:46:10.567Z,41.00
2019-04-16T09:47:08.571Z,43.41
2019-04-16T09:48:07.585Z,42.07
2019-04-16T09:49:07.559Z,40.75
2019-04-16T09:50:11.071Z,39.75
2019-04-16T09:51:07.543Z,39.97
2019-04-16T09:52:07.515Z,40.37
2019-04-16T09:53:07.534Z,40.57
2019-04-16T09:54:12.634Z,40.35
2019-04-16T09:55:08.554Z,40.27
2019-04-16T09:56:07.481Z,41.06
2019-04-16T09:57:07.460Z,39.54
2019-04-16T09:58:07.460Z,40.03
2019-04-16T09:59:07.456Z,39.84
2019-04-16T10:00:08.438Z,41.66
2019-04-16T10:01:07.427Z,41.85
2019-04-16T10:02:07.406Z,39.62
2019-04-16T10:03:07.390Z,41.14
2019-04-16T10:04:07.396Z,40.23
2019-04-16T10:05:07.389Z,40.53
2019-04-16T10:06:07.359Z,42.96
2019-04-16T10:07:07.361Z,39.22
2019-04-16T10:08:09.651Z,39.54
2019-04-16T10:09:08.339Z,40.94
2019-04-16T10:10:07.338Z,39.83
2019-04-16T10:11:07.304Z,40.05
2019-04-16T10:12:08.463Z,41.55
2019-04-16T10:13:07.284Z,41.24
2019-04-16T10:14:07.276Z,40.52
2019-04-16T10:15:07.305Z,39.89
2019-04-16T10:16:07.249Z,39.87
2019-04-16T10:17:07.258Z,40.76
2019-04-16T10:18:07.244Z,38.46
2019-04-16T10:19:08.406Z,39.35
2019-04-16T10:20:07.239Z,39.57
2019-04-16T10:21:07.198Z,39.18
2019-04-16T10:22:07.199Z,39.39
2019-04-16T10:23:07.183Z,39.59
2019-04-16T10:24:07.204Z,39.18
2019-04-16T10:25:07.146Z,39.81
2019-04-16T10:26:07.167Z,41.02
2019-04-16T10:27:07.134Z,42.01
2019-04-16T10:28:07.105Z,41.28
2019-04-16T10:29:07.100Z,39.87
2019-04-16T10:30:07.087Z,40.46
2019-04-16T10:31:07.072Z,39.45
2019-04-16T10:32:07.086Z,38.62
2019-04-16T10:33:07.065Z,38.75
2019-04-16T10:34:07.045Z,38.64
2019-04-16T10:35:07.065Z,39.63
2019-04-16T10:36:07.019Z,40.64
2019-04-16T10:37:07.045Z,38.62
2019-04-16T10:38:06.993Z,39.53
2019-04-16T10:39:07.063Z,39.83
2019-04-16T10:40:06.990Z,39.43
2019-04-16T10:41:07.000Z,37.11
2019-04-16T10:42:06.978Z,38.82
2019-04-16T10:43:06.939Z,38.84
2019-04-16T10:44:06.930Z,38.34
2019-04-16T10:45:06.959Z,39.25
2019-04-16T10:46:09.702Z,38.04
2019-04-16T10:47:06.900Z,38.82
2019-04-16T10:48:06.912Z,39.03
2019-04-16T10:49:06.869Z,39.23
2019-04-16T10:50:06.861Z,38.32
2019-04-16T10:51:06.848Z,38.22
2019-04-16T10:52:06.859Z,36.71
2019-04-16T10:53:06.852Z,39.25
2019-04-16T10:54:06.812Z,39.35
2019-04-16T10:55:09.298Z,40.14
2019-04-16T10:56:07.808Z,39.21
2019-04-16T10:57:10.120Z,38.40
2019-04-16T10:58:06.790Z,37.19
2019-04-16T10:59:06.774Z,38.99
2019-04-16T11:00:06.770Z,37.76
2019-04-16T11:01:06.987Z,36.77
2019-04-16T11:02:09.682Z,37.40
2019-04-16T11:03:06.732Z,38.59
2019-04-16T11:04:07.871Z,38.50
2019-04-16T11:05:06.720Z,38.81
2019-04-16T11:06:06.689Z,38.34
2019-04-16T11:07:06.688Z,39.15
2019-04-16T11:08:07.470Z,38.04
2019-04-16T11:09:06.669Z,37.53
2019-04-16T11:10:06.637Z,37.33
2019-04-16T11:11:06.643Z,39.25
2019-04-16T11:12:06.615Z,36.82
2019-04-16T11:13:06.615Z,36.93
2019-04-16T11:14:06.661Z,39.25
2019-04-16T11:15:06.633Z,39.43
2019-04-16T11:16:06.581Z,39.53
2019-04-16T11:17:06.580Z,39.01
2019-04-16T11:18:06.553Z,36.89
2019-04-16T11:19:06.552Z,37.27
2019-04-16T11:20:06.553Z,36.98
2019-04-16T11:21:06.547Z,36.79
2019-04-16T11:22:06.514Z,37.80
2019-04-16T11:23:07.585Z,37.40
2019-04-16T11:24:06.491Z,36.39
2019-04-16T11:25:06.506Z,37.19
2019-04-16T11:26:06.453Z,39.01
2019-04-16T11:27:06.475Z,39.09
2019-04-16T11:28:06.462Z,37.48
2019-04-16T11:29:06.447Z,38.87
2019-04-16T11:30:06.433Z,36.98
2019-04-16T11:31:06.471Z,37.38
2019-04-16T11:32:06.383Z,38.50
2019-04-16T11:33:06.394Z,37.07
2019-04-16T11:34:06.377Z,37.40
2019-04-16T11:35:06.374Z,38.40
2019-04-16T11:36:18.578Z,37.38
2019-04-16T11:37:09.022Z,37.27
2019-04-16T11:38:06.314Z,37.48
2019-04-16T11:39:06.343Z,37.19
2019-04-16T11:40:06.305Z,37.31
2019-04-16T11:41:06.303Z,39.72
2019-04-16T11:42:06.306Z,39.01
2019-04-16T11:43:06.272Z,37.27
2019-04-16T11:44:15.172Z,37.18
2019-04-16T11:45:07.272Z,36.35
2019-04-16T11:46:06.271Z,36.27
2019-04-16T11:47:06.232Z,35.86
2019-04-16T11:48:06.203Z,38.99
2019-04-16T11:49:06.226Z,37.96
2019-04-16T11:50:06.191Z,36.86
2019-04-16T11:51:06.193Z,37.16
2019-04-16T11:52:06.197Z,37.46
2019-04-16T11:53:06.178Z,37.16
2019-04-16T11:54:06.246Z,36.37
2019-04-16T11:55:06.124Z,39.15
2019-04-16T11:56:06.140Z,38.35
2019-04-16T11:57:06.161Z,35.66
2019-04-16T11:58:06.116Z,36.79
2019-04-16T11:59:06.080Z,38.59
2019-04-16T12:00:08.217Z,36.79
2019-04-16T12:01:06.070Z,38.50
2019-04-16T12:02:06.083Z,38.89
2019-04-16T12:03:06.069Z,37.18
2019-04-16T12:04:06.039Z,37.96
2019-04-16T12:05:06.099Z,39.45
2019-04-16T12:06:06.004Z,36.82
2019-04-16T12:07:06.423Z,35.03
2019-04-16T12:08:05.981Z,36.64
2019-04-16T12:09:05.970Z,38.13
2019-04-16T12:10:06.011Z,35.46
2019-04-16T12:11:06.224Z,36.87
2019-04-16T12:12:06.094Z,37.07
2019-04-16T12:13:05.941Z,34.96
2019-04-16T12:14:08.700Z,35.66
2019-04-16T12:15:05.924Z,36.59
2019-04-16T12:16:06.160Z,37.98
2019-04-16T12:17:05.915Z,37.06
2019-04-16T12:18:06.066Z,36.46
2019-04-16T12:19:06.126Z,34.94
2019-04-16T12:20:06.126Z,36.66
2019-04-16T12:21:05.981Z,37.06
2019-04-16T12:22:05.853Z,37.04
2019-04-16T12:23:05.973Z,37.34
2019-04-16T12:24:05.917Z,36.92
2019-04-16T12:25:05.840Z,36.24
2019-04-16T12:26:08.862Z,35.63
2019-04-16T12:27:05.789Z,35.33
2019-04-16T12:28:11.421Z,36.02
2019-04-16T12:29:06.858Z,36.72
2019-04-16T12:30:05.965Z,37.91
2019-04-16T12:31:05.910Z,36.02
2019-04-16T12:32:05.763Z,34.49
2019-04-16T12:33:08.766Z,35.71
2019-04-16T12:34:05.691Z,35.43
2019-04-16T12:35:05.722Z,35.65
2019-04-16T12:36:05.803Z,36.05
2019-04-16T12:37:05.823Z,36.35
2019-04-16T12:38:05.646Z,35.43
2019-04-16T12:39:05.647Z,36.24
2019-04-16T12:40:05.667Z,36.32
2019-04-16T12:41:05.630Z,35.33
2019-04-16T12:42:05.625Z,37.54
2019-04-16T12:43:05.633Z,36.42
2019-04-16T12:44:05.638Z,36.42
2019-04-16T12:45:08.543Z,36.70
2019-04-16T12:46:05.789Z,35.30
2019-04-16T12:47:05.726Z,35.60
2019-04-16T12:48:05.648Z,35.61
2019-04-16T12:49:05.552Z,36.44
2019-04-16T12:50:05.747Z,36.92
2019-04-16T12:51:05.541Z,35.71
2019-04-16T12:52:05.496Z,35.33
2019-04-16T12:53:05.497Z,37.34